DAL90 YBBN-YSSY
Flight info
| Callsign | DAL90 |
|---|---|
| Flight time | 1h 18m |
| Altitude | 40000 |
| Route | SCOTT DCT UKER DCT APAGI H91 SANAD/N0487F410 DCT WONKA DCT MARLN |
| Aircraft | A359/H-SDE2E3GHIJ3J4J5LM1ORWXY/LB1D1 |
Departure
| Time | 2026-05-07 17:00 |
|---|---|
| Airport | Brisbane International Airport (YBBN) |
Arrival
| Time | 2026-05-07 18:19 |
|---|---|
| Airport | Sydney Kingsford Smith International Airport (YSSY) |
| Time | Latitude | Longitude | Altitude | Speed | Heading |
|---|---|---|---|---|---|
| 2026-05-07 16:41 | -27.40226 | 153.11195 | 28 ft | 0 kts | 297° |
| 2026-05-07 16:48 | -27.40235 | 153.11215 | 28 ft | 3 kts | 297° |
| 2026-05-07 16:48 | -27.40246 | 153.11238 | 27 ft | 3 kts | 297° |
| 2026-05-07 16:48 | -27.40254 | 153.11258 | 26 ft | 3 kts | 282° |
| 2026-05-07 16:49 | -27.40254 | 153.11282 | 25 ft | 3 kts | 241° |
| 2026-05-07 16:49 | -27.40240 | 153.11300 | 26 ft | 3 kts | 214° |
| 2026-05-07 16:49 | -27.40220 | 153.11314 | 24 ft | 3 kts | 211° |
| 2026-05-07 16:49 | -27.40215 | 153.11317 | 25 ft | 3 kts | 215° |
| 2026-05-07 16:50 | -27.40235 | 153.11304 | 25 ft | 3 kts | 211° |
| 2026-05-07 16:50 | -27.40238 | 153.11302 | 25 ft | 0 kts | 211° |
| 2026-05-07 16:52 | -27.40254 | 153.11290 | 25 ft | 6 kts | 211° |
| 2026-05-07 16:53 | -27.40304 | 153.11258 | 28 ft | 10 kts | 208° |
| 2026-05-07 16:53 | -27.40351 | 153.11229 | 28 ft | 13 kts | 208° |
| 2026-05-07 16:53 | -27.40441 | 153.11178 | 28 ft | 16 kts | 206° |
| 2026-05-07 16:53 | -27.40547 | 153.11170 | 28 ft | 17 kts | 135° |
| 2026-05-07 16:54 | -27.40576 | 153.11282 | 28 ft | 14 kts | 55° |
| 2026-05-07 16:54 | -27.40441 | 153.11364 | 28 ft | 20 kts | 26° |
| 2026-05-07 16:54 | -27.40351 | 153.11415 | 28 ft | 23 kts | 27° |
| 2026-05-07 16:54 | -27.40202 | 153.11499 | 28 ft | 25 kts | 27° |
| 2026-05-07 16:55 | -27.40040 | 153.11594 | 28 ft | 27 kts | 27° |
| 2026-05-07 16:55 | -27.39866 | 153.11694 | 28 ft | 29 kts | 27° |
| 2026-05-07 16:55 | -27.39679 | 153.11800 | 28 ft | 31 kts | 26° |
| 2026-05-07 16:55 | -27.39480 | 153.11914 | 28 ft | 33 kts | 27° |
| 2026-05-07 16:56 | -27.39272 | 153.12034 | 28 ft | 34 kts | 27° |
| 2026-05-07 16:56 | -27.39053 | 153.12159 | 28 ft | 36 kts | 26° |
| 2026-05-07 16:56 | -27.38593 | 153.12421 | 28 ft | 38 kts | 27° |
| 2026-05-07 16:57 | -27.38352 | 153.12559 | 28 ft | 39 kts | 27° |
| 2026-05-07 16:57 | -27.38193 | 153.12650 | 28 ft | 23 kts | 27° |
| 2026-05-07 16:57 | -27.38043 | 153.12735 | 28 ft | 25 kts | 27° |
| 2026-05-07 16:57 | -27.37880 | 153.12829 | 27 ft | 27 kts | 27° |
| 2026-05-07 16:58 | -27.37706 | 153.12929 | 27 ft | 29 kts | 27° |
| 2026-05-07 16:58 | -27.37518 | 153.13036 | 27 ft | 31 kts | 27° |
| 2026-05-07 16:58 | -27.37333 | 153.13142 | 27 ft | 28 kts | 27° |
| 2026-05-07 16:58 | -27.37268 | 153.13208 | 28 ft | 6 kts | 92° |
| 2026-05-07 16:59 | -27.37287 | 153.13263 | 28 ft | 9 kts | 114° |
| 2026-05-07 16:59 | -27.37318 | 153.13335 | 28 ft | 12 kts | 116° |
| 2026-05-07 16:59 | -27.37375 | 153.13413 | 28 ft | 14 kts | 148° |
| 2026-05-07 16:59 | -27.37473 | 153.13424 | 29 ft | 13 kts | 199° |
| 2026-05-07 17:00 | -27.37553 | 153.13380 | 27 ft | 29 kts | 206° |
| 2026-05-07 17:00 | -27.37972 | 153.13141 | 28 ft | 104 kts | 207° |
| 2026-05-07 17:00 | -27.38808 | 153.12663 | 41 ft | 163 kts | 209° |
| 2026-05-07 17:00 | -27.39864 | 153.12078 | 620 ft | 177 kts | 208° |
| 2026-05-07 17:01 | -27.41022 | 153.11433 | 1178 ft | 196 kts | 207° |
| 2026-05-07 17:01 | -27.42294 | 153.10770 | 1511 ft | 212 kts | 197° |
| 2026-05-07 17:01 | -27.43759 | 153.10983 | 2305 ft | 215 kts | 153° |
| 2026-05-07 17:01 | -27.44957 | 153.11916 | 3244 ft | 211 kts | 148° |
| 2026-05-07 17:02 | -27.46173 | 153.12843 | 3871 ft | 212 kts | 152° |
| 2026-05-07 17:02 | -27.47472 | 153.13665 | 4410 ft | 217 kts | 154° |
| 2026-05-07 17:02 | -27.48860 | 153.14413 | 4984 ft | 224 kts | 160° |
| 2026-05-07 17:02 | -27.50391 | 153.14700 | 5514 ft | 226 kts | 186° |
| 2026-05-07 17:03 | -27.51985 | 153.14429 | 5891 ft | 241 kts | 194° |
| 2026-05-07 17:03 | -27.53689 | 153.13990 | 6126 ft | 259 kts | 195° |
| 2026-05-07 17:03 | -27.55475 | 153.13506 | 6369 ft | 266 kts | 198° |
| 2026-05-07 17:03 | -27.57247 | 153.12867 | 6732 ft | 268 kts | 201° |
| 2026-05-07 17:04 | -27.59044 | 153.12251 | 7241 ft | 271 kts | 194° |
| 2026-05-07 17:04 | -27.60910 | 153.12245 | 7751 ft | 276 kts | 170° |
| 2026-05-07 17:04 | -27.62653 | 153.13189 | 8298 ft | 284 kts | 144° |
| 2026-05-07 17:04 | -27.63981 | 153.14877 | 8852 ft | 292 kts | 129° |
| 2026-05-07 17:05 | -27.65162 | 153.16782 | 9414 ft | 297 kts | 128° |
| 2026-05-07 17:05 | -27.66340 | 153.18718 | 9980 ft | 300 kts | 128° |
| 2026-05-07 17:05 | -27.67550 | 153.20684 | 10366 ft | 311 kts | 129° |
| 2026-05-07 17:05 | -27.68804 | 153.22704 | 10585 ft | 326 kts | 129° |
| 2026-05-07 17:06 | -27.70137 | 153.24842 | 10818 ft | 340 kts | 128° |
| 2026-05-07 17:06 | -27.71523 | 153.27068 | 11059 ft | 354 kts | 128° |
| 2026-05-07 17:06 | -27.72624 | 153.29605 | 11260 ft | 370 kts | 107° |
| 2026-05-07 17:06 | -27.72767 | 153.30349 | 11330 ft | 375 kts | 101° |
| 2026-05-07 17:07 | -27.72896 | 153.33178 | 11563 ft | 385 kts | 91° |
| 2026-05-07 17:07 | -27.72858 | 153.36216 | 11865 ft | 388 kts | 90° |
| 2026-05-07 17:07 | -27.72831 | 153.39261 | 12400 ft | 388 kts | 91° |
| 2026-05-07 17:07 | -27.72826 | 153.42308 | 12958 ft | 387 kts | 91° |
| 2026-05-07 17:08 | -27.72845 | 153.45342 | 13521 ft | 386 kts | 93° |
| 2026-05-07 17:08 | -27.73209 | 153.48336 | 14072 ft | 382 kts | 107° |
| 2026-05-07 17:08 | -27.74245 | 153.51059 | 14583 ft | 375 kts | 126° |
| 2026-05-07 17:08 | -27.75980 | 153.53230 | 14886 ft | 374 kts | 147° |
| 2026-05-07 17:09 | -27.78280 | 153.54533 | 15178 ft | 378 kts | 168° |
| 2026-05-07 17:09 | -27.80871 | 153.55061 | 15755 ft | 380 kts | 177° |
| 2026-05-07 17:09 | -27.83513 | 153.55423 | 16417 ft | 384 kts | 178° |
| 2026-05-07 17:09 | -27.86186 | 153.55712 | 17109 ft | 387 kts | 180° |
| 2026-05-07 17:10 | -27.88882 | 153.55874 | 17808 ft | 390 kts | 182° |
| 2026-05-07 17:10 | -27.91604 | 153.55877 | 18490 ft | 393 kts | 186° |
| 2026-05-07 17:10 | -27.94350 | 153.55696 | 19088 ft | 395 kts | 189° |
| 2026-05-07 17:10 | -27.97090 | 153.55310 | 19691 ft | 397 kts | 194° |
| 2026-05-07 17:11 | -27.99804 | 153.54705 | 20314 ft | 399 kts | 198° |
| 2026-05-07 17:11 | -28.02564 | 153.54126 | 20934 ft | 407 kts | 193° |
| 2026-05-07 17:11 | -28.05422 | 153.53930 | 21556 ft | 416 kts | 186° |
| 2026-05-07 17:11 | -28.08337 | 153.53858 | 22157 ft | 420 kts | 188° |
| 2026-05-07 17:12 | -28.11277 | 153.53808 | 22784 ft | 424 kts | 189° |
| 2026-05-07 17:12 | -28.14208 | 153.53486 | 23379 ft | 421 kts | 197° |
| 2026-05-07 17:12 | -28.16978 | 153.52638 | 23946 ft | 415 kts | 208° |
| 2026-05-07 17:12 | -28.19529 | 153.51182 | 24498 ft | 407 kts | 220° |
| 2026-05-07 17:13 | -28.21743 | 153.49223 | 25067 ft | 402 kts | 229° |
| 2026-05-07 17:13 | -28.23679 | 153.46957 | 25669 ft | 399 kts | 235° |
| 2026-05-07 17:13 | -28.25444 | 153.44537 | 26278 ft | 398 kts | 238° |
| 2026-05-07 17:13 | -28.28100 | 153.40590 | 27223 ft | 400 kts | 240° |
| 2026-05-07 17:14 | -28.34965 | 153.30481 | 29527 ft | 409 kts | 240° |
| 2026-05-07 17:14 | -28.42155 | 153.20197 | 31311 ft | 420 kts | 240° |
| 2026-05-07 17:14 | -28.49482 | 153.09724 | 32878 ft | 424 kts | 240° |
| 2026-05-07 17:14 | -28.56777 | 152.99228 | 34700 ft | 418 kts | 241° |
| 2026-05-07 17:15 | -28.63976 | 152.88845 | 36135 ft | 416 kts | 242° |
| 2026-05-07 17:15 | -28.71081 | 152.78573 | 37401 ft | 414 kts | 242° |
| 2026-05-07 17:15 | -28.78161 | 152.68318 | 38712 ft | 409 kts | 243° |
| 2026-05-07 17:15 | -28.85775 | 152.58536 | 39573 ft | 430 kts | 230° |
| 2026-05-07 17:16 | -28.96518 | 152.51521 | 40182 ft | 450 kts | 220° |
| 2026-05-07 17:16 | -29.07544 | 152.45059 | 40203 ft | 451 kts | 220° |
| 2026-05-07 17:16 | -29.29738 | 152.31789 | 40858 ft | 448 kts | 220° |
| 2026-05-07 17:17 | -29.40781 | 152.25162 | 41224 ft | 447 kts | 220° |
| 2026-05-07 17:17 | -29.51810 | 152.18522 | 41271 ft | 447 kts | 220° |
| 2026-05-07 17:17 | -29.74474 | 152.06332 | 41278 ft | 471 kts | 207° |
| 2026-05-07 17:18 | -30.00081 | 151.99655 | 41250 ft | 474 kts | 205° |
| 2026-05-07 17:18 | -30.25772 | 151.92906 | 41253 ft | 474 kts | 205° |
| 2026-05-07 17:19 | -30.38157 | 151.88490 | 41264 ft | 459 kts | 214° |
| 2026-05-07 17:19 | -30.49980 | 151.82978 | 41267 ft | 457 kts | 214° |
| 2026-05-07 17:19 | -30.73602 | 151.71929 | 41265 ft | 458 kts | 213° |
| 2026-05-07 17:20 | -30.97260 | 151.60821 | 41260 ft | 458 kts | 213° |
| 2026-05-07 17:20 | -31.20904 | 151.49661 | 41268 ft | 457 kts | 213° |
| 2026-05-07 17:21 | -31.32874 | 151.44427 | 41272 ft | 472 kts | 204° |
| 2026-05-07 17:21 | -31.46517 | 151.46248 | 41255 ft | 533 kts | 163° |
| 2026-05-07 17:21 | -31.72833 | 151.63184 | 41226 ft | 539 kts | 160° |
| 2026-05-07 17:22 | -31.99131 | 151.80184 | 41207 ft | 537 kts | 160° |
| 2026-05-07 17:22 | -32.25111 | 151.97092 | 41162 ft | 536 kts | 159° |
| 2026-05-07 17:23 | -32.40108 | 152.06904 | 41154 ft | 535 kts | 159° |
| 2026-05-07 17:23 | -32.43458 | 152.08684 | 41160 ft | 520 kts | 172° |
| 2026-05-07 17:23 | -32.46927 | 152.09512 | 41184 ft | 497 kts | 187° |
| 2026-05-07 17:24 | -32.53717 | 152.09593 | 41154 ft | 490 kts | 191° |
| 2026-05-07 17:24 | -32.60527 | 152.09470 | 40865 ft | 489 kts | 191° |
| 2026-05-07 17:25 | -32.63934 | 152.09406 | 40414 ft | 490 kts | 191° |
| 2026-05-07 17:25 | -32.67346 | 152.09341 | 39896 ft | 490 kts | 191° |
| 2026-05-07 17:25 | -32.71294 | 152.09266 | 39307 ft | 490 kts | 191° |
| 2026-05-07 17:25 | -32.78133 | 152.09136 | 38192 ft | 490 kts | 191° |
| 2026-05-07 17:26 | -32.84960 | 152.09006 | 37003 ft | 490 kts | 190° |
| 2026-05-07 17:26 | -32.91810 | 152.08875 | 35875 ft | 491 kts | 189° |
| 2026-05-07 17:26 | -32.98577 | 152.08746 | 34850 ft | 491 kts | 188° |
| 2026-05-07 17:26 | -33.05417 | 152.08616 | 33729 ft | 491 kts | 188° |
| 2026-05-07 17:27 | -33.12261 | 152.08486 | 32569 ft | 491 kts | 188° |
| 2026-05-07 17:27 | -33.19086 | 152.08356 | 31472 ft | 491 kts | 188° |
| 2026-05-07 17:27 | -33.25899 | 152.08226 | 30379 ft | 488 kts | 188° |
| 2026-05-07 17:27 | -33.32690 | 152.08097 | 29174 ft | 485 kts | 188° |
| 2026-05-07 17:28 | -33.39379 | 152.07973 | 27994 ft | 475 kts | 188° |
| 2026-05-07 17:28 | -33.45912 | 152.07850 | 26906 ft | 463 kts | 188° |
| 2026-05-07 17:28 | -33.52283 | 152.07728 | 25809 ft | 452 kts | 188° |
| 2026-05-07 17:28 | -33.58514 | 152.07607 | 24757 ft | 443 kts | 188° |
| 2026-05-07 17:29 | -33.64627 | 152.07487 | 23742 ft | 435 kts | 188° |
| 2026-05-07 17:29 | -33.70632 | 152.07370 | 22556 ft | 427 kts | 188° |
| 2026-05-07 17:29 | -33.76509 | 152.07256 | 21255 ft | 416 kts | 188° |
| 2026-05-07 17:29 | -33.82207 | 152.07146 | 20001 ft | 403 kts | 187° |
| 2026-05-07 17:30 | -33.87127 | 152.07050 | 18938 ft | 393 kts | 187° |
| 2026-05-07 17:30 | -33.89841 | 152.06998 | 18379 ft | 387 kts | 187° |
| 2026-05-07 17:30 | -33.92506 | 152.06929 | 17795 ft | 378 kts | 188° |
| 2026-05-07 17:30 | -33.95076 | 152.06532 | 17236 ft | 367 kts | 197° |
| 2026-05-07 17:31 | -33.97467 | 152.05529 | 16595 ft | 361 kts | 209° |
| 2026-05-07 17:31 | -33.99518 | 152.03842 | 15962 ft | 356 kts | 223° |
| 2026-05-07 17:31 | -34.01079 | 152.01540 | 15347 ft | 355 kts | 238° |
| 2026-05-07 17:31 | -34.02012 | 151.98830 | 14751 ft | 357 kts | 252° |
| 2026-05-07 17:32 | -34.02269 | 151.95838 | 14153 ft | 363 kts | 267° |
| 2026-05-07 17:32 | -34.02010 | 151.92801 | 13500 ft | 365 kts | 275° |
| 2026-05-07 17:32 | -34.01196 | 151.89897 | 12869 ft | 369 kts | 289° |
| 2026-05-07 17:32 | -34.00348 | 151.88077 | 12437 ft | 371 kts | 297° |
| 2026-05-07 17:33 | -33.98231 | 151.84842 | 11607 ft | 369 kts | 303° |
| 2026-05-07 17:33 | -33.96591 | 151.82487 | 10994 ft | 365 kts | 303° |
| 2026-05-07 17:33 | -33.94974 | 151.80163 | 10399 ft | 359 kts | 303° |
| 2026-05-07 17:33 | -33.93403 | 151.77909 | 9796 ft | 343 kts | 303° |
| 2026-05-07 17:34 | -33.91902 | 151.75759 | 9161 ft | 328 kts | 303° |
| 2026-05-07 17:34 | -33.90469 | 151.73709 | 8789 ft | 312 kts | 303° |
| 2026-05-07 17:34 | -33.89098 | 151.71753 | 8571 ft | 300 kts | 303° |
| 2026-05-07 17:34 | -33.87772 | 151.69874 | 8361 ft | 288 kts | 303° |
| 2026-05-07 17:35 | -33.86490 | 151.68059 | 8100 ft | 281 kts | 303° |
| 2026-05-07 17:35 | -33.85228 | 151.66259 | 8021 ft | 281 kts | 303° |
| 2026-05-07 17:35 | -33.83991 | 151.64494 | 7766 ft | 278 kts | 303° |
| 2026-05-07 17:35 | -33.82751 | 151.62719 | 7376 ft | 278 kts | 302° |
| 2026-05-07 17:36 | -33.81500 | 151.60940 | 7013 ft | 278 kts | 303° |
| 2026-05-07 17:36 | -33.80257 | 151.59163 | 6634 ft | 277 kts | 302° |
| 2026-05-07 17:36 | -33.79015 | 151.57394 | 6243 ft | 276 kts | 303° |
| 2026-05-07 17:36 | -33.77772 | 151.55640 | 5870 ft | 275 kts | 303° |
| 2026-05-07 17:37 | -33.76534 | 151.53884 | 5494 ft | 275 kts | 303° |
| 2026-05-07 17:37 | -33.75315 | 151.52122 | 5146 ft | 274 kts | 302° |
| 2026-05-07 17:37 | -33.74092 | 151.50371 | 5023 ft | 274 kts | 302° |
| 2026-05-07 17:37 | -33.72867 | 151.48612 | 5022 ft | 274 kts | 303° |
| 2026-05-07 17:38 | -33.71654 | 151.46843 | 5045 ft | 274 kts | 303° |
| 2026-05-07 17:38 | -33.70452 | 151.45071 | 5035 ft | 272 kts | 302° |
| 2026-05-07 17:38 | -33.69527 | 151.43134 | 5048 ft | 264 kts | 286° |
| 2026-05-07 17:38 | -33.69409 | 151.42793 | 5034 ft | 264 kts | 285° |
| 2026-05-07 17:43 | -33.68824 | 151.40931 | 5029 ft | 263 kts | 283° |
| 2026-05-07 17:43 | -33.68203 | 151.38857 | 5018 ft | 263 kts | 283° |
| 2026-05-07 17:43 | -33.67593 | 151.36786 | 5006 ft | 263 kts | 283° |
| 2026-05-07 17:44 | -33.67003 | 151.34798 | 5008 ft | 248 kts | 283° |
| 2026-05-07 17:44 | -33.66430 | 151.32897 | 4838 ft | 238 kts | 283° |
| 2026-05-07 17:44 | -33.65886 | 151.31045 | 4595 ft | 233 kts | 283° |
| 2026-05-07 17:44 | -33.65489 | 151.29204 | 4336 ft | 222 kts | 267° |
| 2026-05-07 17:45 | -33.65621 | 151.27396 | 4090 ft | 215 kts | 255° |
| 2026-05-07 17:45 | -33.65920 | 151.25640 | 4017 ft | 215 kts | 253° |
| 2026-05-07 17:45 | -33.66241 | 151.23887 | 4001 ft | 214 kts | 252° |
| 2026-05-07 17:45 | -33.66560 | 151.22149 | 4009 ft | 214 kts | 252° |
| 2026-05-07 17:46 | -33.66876 | 151.20422 | 3902 ft | 212 kts | 252° |
| 2026-05-07 17:46 | -33.67196 | 151.18717 | 3663 ft | 207 kts | 252° |
| 2026-05-07 17:46 | -33.67558 | 151.17059 | 3408 ft | 201 kts | 245° |
| 2026-05-07 17:46 | -33.68396 | 151.15806 | 3151 ft | 192 kts | 213° |
| 2026-05-07 17:47 | -33.68902 | 151.15462 | 3070 ft | 190 kts | 207° |
| 2026-05-07 17:47 | -33.70089 | 151.14885 | 3019 ft | 177 kts | 203° |
| 2026-05-07 17:47 | -33.71197 | 151.14420 | 3019 ft | 163 kts | 202° |
| 2026-05-07 17:47 | -33.72261 | 151.13975 | 3020 ft | 162 kts | 203° |
| 2026-05-07 17:48 | -33.73325 | 151.13537 | 3005 ft | 164 kts | 202° |
| 2026-05-07 17:48 | -33.74403 | 151.13097 | 2999 ft | 164 kts | 202° |
| 2026-05-07 17:48 | -33.75525 | 151.12851 | 3011 ft | 168 kts | 185° |
| 2026-05-07 17:48 | -33.76699 | 151.13004 | 3005 ft | 170 kts | 176° |
| 2026-05-07 17:49 | -33.77863 | 151.13270 | 3005 ft | 171 kts | 176° |
| 2026-05-07 17:49 | -33.79028 | 151.13550 | 2961 ft | 167 kts | 175° |
| 2026-05-07 17:49 | -33.80156 | 151.13843 | 2723 ft | 165 kts | 176° |
| 2026-05-07 17:49 | -33.81255 | 151.14133 | 2481 ft | 155 kts | 176° |
| 2026-05-07 17:50 | -33.82290 | 151.14397 | 2282 ft | 150 kts | 179° |
| 2026-05-07 17:50 | -33.83311 | 151.14658 | 2072 ft | 151 kts | 179° |
| 2026-05-07 17:50 | -33.84339 | 151.14926 | 1859 ft | 151 kts | 180° |
| 2026-05-07 17:50 | -33.85370 | 151.15192 | 1654 ft | 148 kts | 179° |
| 2026-05-07 17:51 | -33.86340 | 151.15446 | 1455 ft | 140 kts | 178° |
| 2026-05-07 17:51 | -33.87271 | 151.15688 | 1260 ft | 131 kts | 179° |
| 2026-05-07 17:51 | -33.88137 | 151.15910 | 1087 ft | 129 kts | 178° |
| 2026-05-07 17:51 | -33.89017 | 151.16139 | 903 ft | 129 kts | 179° |
| 2026-05-07 17:52 | -33.89909 | 151.16369 | 719 ft | 135 kts | 178° |
| 2026-05-07 17:52 | -33.90835 | 151.16611 | 538 ft | 137 kts | 175° |
| 2026-05-07 17:52 | -33.91777 | 151.16856 | 334 ft | 138 kts | 176° |
| 2026-05-07 17:52 | -33.92692 | 151.17103 | 145 ft | 134 kts | 171° |
| 2026-05-07 17:53 | -33.93612 | 151.17341 | 36 ft | 135 kts | 174° |
| 2026-05-07 17:53 | -33.94514 | 151.17566 | 210 ft | 158 kts | 176° |
| 2026-05-07 17:53 | -33.95738 | 151.17820 | 406 ft | 194 kts | 175° |
| 2026-05-07 17:53 | -33.97142 | 151.18194 | 586 ft | 217 kts | 172° |
| 2026-05-07 17:54 | -33.98645 | 151.18593 | 942 ft | 223 kts | 172° |
| 2026-05-07 17:54 | -34.00145 | 151.18996 | 1557 ft | 221 kts | 175° |
| 2026-05-07 17:54 | -34.01630 | 151.19403 | 2276 ft | 216 kts | 174° |
| 2026-05-07 17:54 | -34.03096 | 151.19817 | 2782 ft | 217 kts | 169° |
| 2026-05-07 17:55 | -34.04431 | 151.20711 | 3191 ft | 228 kts | 140° |
| 2026-05-07 17:55 | -34.04461 | 151.20748 | 3197 ft | 228 kts | 140° |
| 2026-05-07 18:06 | -34.05168 | 151.22136 | 3518 ft | 237 kts | 114° |
| 2026-05-07 18:07 | -34.05355 | 151.24136 | 3891 ft | 245 kts | 89° |
| 2026-05-07 18:07 | -34.05114 | 151.26178 | 4000 ft | 246 kts | 84° |
| 2026-05-07 18:07 | -34.04794 | 151.28214 | 4004 ft | 247 kts | 83° |
| 2026-05-07 18:07 | -34.04464 | 151.30253 | 4006 ft | 248 kts | 83° |
| 2026-05-07 18:08 | -34.04125 | 151.32295 | 4003 ft | 249 kts | 83° |
| 2026-05-07 18:08 | -34.03787 | 151.34341 | 4013 ft | 249 kts | 84° |
| 2026-05-07 18:08 | -34.03433 | 151.36363 | 4004 ft | 250 kts | 83° |
| 2026-05-07 18:08 | -34.02933 | 151.38382 | 3996 ft | 257 kts | 66° |
| 2026-05-07 18:09 | -34.01748 | 151.40003 | 3999 ft | 260 kts | 34° |
| 2026-05-07 18:09 | -34.00087 | 151.40810 | 3861 ft | 257 kts | 8° |
| 2026-05-07 18:09 | -33.98326 | 151.41133 | 3613 ft | 253 kts | 3° |
| 2026-05-07 18:09 | -33.96596 | 151.41382 | 3365 ft | 248 kts | 4° |
| 2026-05-07 18:10 | -33.94897 | 151.41623 | 3093 ft | 243 kts | 2° |
| 2026-05-07 18:10 | -33.93256 | 151.41882 | 3013 ft | 230 kts | 4° |
| 2026-05-07 18:10 | -33.91729 | 151.42138 | 3018 ft | 217 kts | 2° |
| 2026-05-07 18:10 | -33.90237 | 151.42170 | 3010 ft | 211 kts | 340° |
| 2026-05-07 18:11 | -33.89063 | 151.41325 | 2998 ft | 190 kts | 300° |
| 2026-05-07 18:11 | -33.88759 | 151.40394 | 3005 ft | 176 kts | 268° |
| 2026-05-07 18:11 | -33.88778 | 151.39845 | 3017 ft | 172 kts | 256° |
| 2026-05-07 18:13 | -33.89008 | 151.38859 | 2989 ft | 164 kts | 245° |
| 2026-05-07 18:14 | -33.89376 | 151.37572 | 2987 ft | 162 kts | 248° |
| 2026-05-07 18:14 | -33.89677 | 151.36276 | 2986 ft | 160 kts | 248° |
| 2026-05-07 18:14 | -33.89965 | 151.35020 | 2852 ft | 155 kts | 248° |
| 2026-05-07 18:14 | -33.90253 | 151.33793 | 2634 ft | 149 kts | 249° |
| 2026-05-07 18:15 | -33.90528 | 151.32637 | 2431 ft | 138 kts | 250° |
| 2026-05-07 18:15 | -33.90784 | 151.31553 | 2247 ft | 133 kts | 252° |
| 2026-05-07 18:15 | -33.91037 | 151.30485 | 2055 ft | 132 kts | 252° |
| 2026-05-07 18:15 | -33.91287 | 151.29429 | 1879 ft | 131 kts | 253° |
| 2026-05-07 18:16 | -33.91529 | 151.28401 | 1716 ft | 122 kts | 253° |
| 2026-05-07 18:16 | -33.91749 | 151.27469 | 1542 ft | 110 kts | 253° |
| 2026-05-07 18:16 | -33.91952 | 151.26610 | 1399 ft | 106 kts | 252° |
| 2026-05-07 18:16 | -33.92156 | 151.25752 | 1259 ft | 108 kts | 253° |
| 2026-05-07 18:17 | -33.92362 | 151.24879 | 1105 ft | 108 kts | 255° |
| 2026-05-07 18:17 | -33.92566 | 151.24012 | 958 ft | 108 kts | 255° |
| 2026-05-07 18:17 | -33.92771 | 151.23145 | 811 ft | 111 kts | 256° |
| 2026-05-07 18:17 | -33.92989 | 151.22221 | 648 ft | 118 kts | 255° |
| 2026-05-07 18:18 | -33.93218 | 151.21256 | 483 ft | 122 kts | 256° |
| 2026-05-07 18:18 | -33.93446 | 151.20290 | 315 ft | 116 kts | 257° |
| 2026-05-07 18:18 | -33.93662 | 151.19365 | 137 ft | 115 kts | 258° |
| 2026-05-07 18:18 | -33.93894 | 151.18423 | 39 ft | 116 kts | 260° |
| 2026-05-07 18:19 | -33.94064 | 151.17667 | 35 ft | 72 kts | 254° |
| 2026-05-07 18:19 | -33.94136 | 151.17366 | 34 ft | 14 kts | 254° |
| 2026-05-07 18:19 | -33.94125 | 151.17267 | 35 ft | 12 kts | 330° |
| 2026-05-07 18:19 | -33.94083 | 151.17254 | 35 ft | 6 kts | 347° |
| 2026-05-07 18:20 | -33.94072 | 151.17251 | 35 ft | 7 kts | 347° |